Time;durP1;ratioP1;P1;durP2;ratioP2;P2;SDS_P1;SDS_P2;PMS_P1;PMS_P2;Temp;Humidity;BMP_temperature;BMP_pressure;BME280_temperature;BME280_humidity;BME280_pressure;Samples;Min_cycle;Max_cycle;Signal;HPM_P1;HPM_P2
2022/09/17 00:02:24;;;;;;;12.88;2.30;;;11.00;99.90;;;;;;5089641;28;20048;-76
2022/09/17 00:04:50;;;;;;;15.18;2.67;;;11.90;99.90;;;;;;5091128;28;20463;-77
2022/09/17 00:07:16;;;;;;;19.77;2.25;;;11.90;99.90;;;;;;5091539;28;20043;-77
2022/09/17 00:09:43;;;;;;;15.23;2.53;;;11.00;99.90;;;;;;5089218;28;20475;-77
2022/09/17 00:12:08;;;;;;;18.00;2.38;;;11.20;99.90;;;;;;5089897;28;20119;-78
2022/09/17 00:14:34;;;;;;;13.93;2.15;;;11.10;99.90;;;;;;5089632;28;20115;-77
2022/09/17 00:16:59;;;;;;;16.08;2.67;;;11.10;99.90;;;;;;5089004;28;20118;-77
2022/09/17 00:19:25;;;;;;;16.52;3.03;;;11.10;99.90;;;;;;5091510;28;20063;-76
2022/09/17 00:21:51;;;;;;;12.43;2.22;;;11.00;99.90;;;;;;5124237;27;20036;-78
2022/09/17 00:24:17;;;;;;;15.80;2.30;;;11.00;99.90;;;;;;5090128;28;20538;-77
2022/09/17 00:26:43;;;;;;;20.13;3.83;;;11.00;99.90;;;;;;5072888;28;20362;-77
2022/09/17 00:29:09;;;;;;;15.52;2.28;;;11.00;99.90;;;;;;5089727;28;20505;-77
2022/09/17 00:31:35;;;;;;;17.75;2.97;;;11.00;99.90;;;;;;5071803;28;20047;-77
2022/09/17 00:34:02;;;;;;;14.30;2.40;;;11.00;99.90;;;;;;5089544;28;20032;-77
2022/09/17 00:36:29;;;;;;;18.02;2.25;;;11.00;99.90;;;;;;5090861;28;20084;-77
2022/09/17 00:38:57;;;;;;;15.00;2.95;;;11.20;99.90;;;;;;5071987;28;20044;-77
2022/09/17 00:41:28;;;;;;;12.38;2.60;;;10.90;99.90;;;;;;5090796;28;20070;-77
2022/09/17 00:43:59;;;;;;;13.63;1.80;;;10.90;99.90;;;;;;5089237;28;20044;-77
2022/09/17 00:46:36;;;;;;;15.07;2.50;;;10.90;99.90;;;;;;5088564;28;20044;-77
2022/09/17 00:49:09;;;;;;;14.80;2.33;;;10.90;99.90;;;;;;5090672;28;20155;-77
2022/09/17 00:51:40;;;;;;;12.90;2.08;;;10.90;99.90;;;;;;5090046;28;20039;-77
2022/09/17 00:54:08;;;;;;;12.98;2.30;;;10.80;99.90;;;;;;5089199;28;20514;-77
2022/09/17 00:56:35;;;;;;;10.48;1.52;;;10.70;99.90;;;;;;5089340;28;20050;-78
2022/09/17 00:59:02;;;;;;;8.35;1.88;;;10.60;99.90;;;;;;5088388;28;20052;-77
2022/09/17 01:01:29;;;;;;;13.60;1.60;;;10.60;99.90;;;;;;5090696;28;20040;-76
2022/09/17 01:03:55;;;;;;;17.10;2.28;;;10.50;99.90;;;;;;5089710;28;20048;-77
2022/09/17 01:06:42;;;;;;;19.13;3.03;;;10.50;99.90;;;;;;5088222;28;20161;-77
2022/09/17 01:09:41;;;;;;;15.93;2.42;;;10.50;99.90;;;;;;5088469;28;20086;-77
2022/09/17 01:12:44;;;;;;;14.30;2.10;;;10.40;99.90;;;;;;5088461;28;20140;-77
2022/09/17 01:15:48;;;;;;;16.35;2.30;;;10.30;99.90;;;;;;5088927;28;20460;-77
2022/09/17 01:18:35;;;;;;;20.00;2.97;;;10.30;99.90;;;;;;5080892;28;20514;-77
2022/09/17 01:21:27;;;;;;;16.90;2.90;;;10.20;99.90;;;;;;5087998;28;20146;-77
2022/09/17 01:24:14;;;;;;;14.75;2.60;;;10.30;99.90;;;;;;5088167;28;20047;-77
2022/09/17 01:26:45;;;;;;;9.43;2.53;;;10.20;99.90;;;;;;5083944;28;20040;-77
2022/09/17 01:29:48;;;;;;;18.92;3.20;;;10.20;99.90;;;;;;5089548;28;20069;-77
2022/09/17 01:32:17;;;;;;;16.42;1.75;;;10.10;99.90;;;;;;5075027;28;20044;-77
2022/09/17 01:35:04;;;;;;;13.00;2.60;;;11.20;99.90;;;;;;5087081;28;20523;-76
2022/09/17 01:37:38;;;;;;;17.52;2.42;;;10.10;99.90;;;;;;5078914;28;20506;-77
2022/09/17 01:40:22;;;;;;;15.30;2.58;;;10.10;99.90;;;;;;5088525;28;20032;-76
2022/09/17 01:43:12;;;;;;;12.50;2.38;;;10.10;99.90;;;;;;5070761;28;20040;-77
2022/09/17 01:45:44;;;;;;;21.10;3.65;;;10.10;99.90;;;;;;5084389;28;20161;-76
2022/09/17 01:48:16;;;;;;;13.93;1.70;;;10.10;99.90;;;;;;5087363;28;20410;-77
2022/09/17 01:50:59;;;;;;;11.70;1.98;;;10.10;99.90;;;;;;5089283;28;20360;-77
2022/09/17 01:53:34;;;;;;;16.33;2.50;;;10.00;99.90;;;;;;5117498;27;20040;-77
2022/09/17 01:56:02;;;;;;;15.35;3.28;;;10.00;99.90;;;;;;5088349;28;20452;-77
2022/09/17 01:58:35;;;;;;;14.57;2.30;;;10.00;99.90;;;;;;5071008;28;20040;-77
2022/09/17 02:01:05;;;;;;;20.40;2.10;;;10.00;99.90;;;;;;5088132;28;20436;-77
2022/09/17 02:03:40;;;;;;;17.33;2.70;;;10.00;99.90;;;;;;5088307;28;20044;-76
2022/09/17 02:06:14;;;;;;;37.42;3.45;;;10.00;99.90;;;;;;5087247;28;20051;-77
2022/09/17 02:08:56;;;;;;;16.45;2.47;;;10.00;99.90;;;;;;5087662;28;20036;-77
2022/09/17 02:11:22;;;;;;;15.05;1.70;;;10.10;99.90;;;;;;5082238;28;20032;-76
2022/09/17 02:14:26;;;;;;;16.00;3.65;;;10.10;99.90;;;;;;5088739;28;20040;-77
2022/09/17 02:16:59;;;;;;;16.00;2.42;;;10.10;99.90;;;;;;5082990;28;20051;-77
2022/09/17 02:19:31;;;;;;;19.85;2.40;;;10.10;99.90;;;;;;5087713;28;20079;-77
2022/09/17 02:22:21;;;;;;;17.05;2.05;;;10.10;99.90;;;;;;5087491;28;20044;-76
2022/09/17 02:25:02;;;;;;;33.22;4.00;;;10.10;99.90;;;;;;5083973;28;20032;-77
2022/09/17 02:27:43;;;;;;;16.38;2.08;;;10.20;99.90;;;;;;5082893;28;20062;-76
2022/09/17 02:30:09;;;;;;;14.65;2.28;;;11.00;99.90;;;;;;5070043;28;20090;-77
2022/09/17 02:32:35;;;;;;;14.95;1.90;;;10.30;99.90;;;;;;5086892;28;20050;-76
2022/09/17 02:35:01;;;;;;;12.20;2.67;;;10.30;99.90;;;;;;5088265;28;20118;-77
2022/09/17 02:37:27;;;;;;;24.77;2.95;;;10.30;99.90;;;;;;5087877;28;20036;-77
2022/09/17 02:39:53;;;;;;;12.73;2.45;;;10.30;99.90;;;;;;5086947;28;20052;-76
2022/09/17 02:42:55;;;;;;;13.05;2.38;;;10.40;99.90;;;;;;5087766;28;20035;-77
2022/09/17 02:45:24;;;;;;;16.40;2.72;;;10.40;99.90;;;;;;5087997;28;20150;-77
2022/09/17 02:48:32;;;;;;;14.45;2.58;;;10.40;99.90;;;;;;5088786;28;20056;-77
2022/09/17 02:51:17;;;;;;;11.60;1.85;;;10.30;99.90;;;;;;5077253;28;20044;-77
2022/09/17 02:54:21;;;;;;;14.23;1.80;;;10.30;99.90;;;;;;5081824;28;20074;-77
2022/09/17 02:57:17;;;;;;;9.15;1.45;;;10.30;99.90;;;;;;5030322;28;20155;-77
2022/09/17 03:00:03;;;;;;;12.15;1.90;;;10.20;99.90;;;;;;5115565;27;20052;-78
2022/09/17 03:02:55;;;;;;;13.35;2.03;;;10.30;99.90;;;;;;5061366;28;20044;-77
2022/09/17 03:05:22;;;;;;;10.88;2.00;;;10.20;99.90;;;;;;5061399;28;20055;-77
2022/09/17 03:07:49;;;;;;;21.88;2.85;;;10.20;99.90;;;;;;5086718;28;20055;-78
2022/09/17 03:10:15;;;;;;;12.65;1.58;;;10.20;99.90;;;;;;5064735;28;20419;-76
2022/09/17 03:12:41;;;;;;;17.80;2.90;;;10.20;99.90;;;;;;5085434;28;20391;-77
2022/09/17 03:15:07;;;;;;;10.13;1.65;;;10.20;99.90;;;;;;5087850;28;20047;-77
2022/09/17 03:17:34;;;;;;;12.82;2.30;;;10.20;99.90;;;;;;5062477;28;20044;-77
2022/09/17 03:19:59;;;;;;;12.15;2.15;;;10.20;99.90;;;;;;5086618;28;20073;-77
2022/09/17 03:22:25;;;;;;;19.00;2.65;;;10.20;99.90;;;;;;5069811;28;20040;-76
2022/09/17 03:24:50;;;;;;;11.25;1.88;;;10.20;99.90;;;;;;5069247;28;20048;-77
2022/09/17 03:27:16;;;;;;;14.57;2.70;;;10.20;99.90;;;;;;5086261;28;20039;-77
2022/09/17 03:29:42;;;;;;;12.43;2.08;;;9.70;99.90;;;;;;5086319;28;20040;-77
2022/09/17 03:32:07;;;;;;;17.23;2.58;;;10.20;99.90;;;;;;5102720;28;20044;-77
2022/09/17 03:34:33;;;;;;;14.27;2.90;;;10.20;99.90;;;;;;5087683;28;20377;-77
2022/09/17 03:36:58;;;;;;;14.80;2.17;;;11.10;99.90;;;;;;5088341;28;20048;-77
2022/09/17 03:39:24;;;;;;;15.02;2.47;;;10.30;99.90;;;;;;5087549;28;20501;-77
2022/09/17 03:41:50;;;;;;;13.93;2.35;;;10.30;99.90;;;;;;5088641;28;20036;-76
2022/09/17 03:44:18;;;;;;;10.85;1.85;;;10.40;99.90;;;;;;5120728;28;20137;-77
2022/09/17 03:46:44;;;;;;;11.30;2.75;;;10.40;99.90;;;;;;5069292;28;20403;-77
2022/09/17 03:49:09;;;;;;;13.70;2.50;;;10.40;99.90;;;;;;5120952;27;20125;-77
2022/09/17 03:51:35;;;;;;;16.90;2.67;;;10.40;99.90;;;;;;5069978;28;20053;-77
2022/09/17 03:54:02;;;;;;;17.33;2.38;;;10.30;99.90;;;;;;5087130;28;20502;-77
2022/09/17 03:56:28;;;;;;;8.73;2.00;;;10.40;99.90;;;;;;5086972;28;20408;-77
2022/09/17 03:58:58;;;;;;;12.40;1.83;;;10.40;99.90;;;;;;5088105;28;20089;-77
2022/09/17 04:01:23;;;;;;;15.73;1.70;;;10.30;99.90;;;;;;5080652;28;20535;-77
2022/09/17 04:03:49;;;;;;;12.90;2.33;;;10.20;99.90;;;;;;5087616;28;20139;-77
2022/09/17 04:06:15;;;;;;;11.88;1.80;;;10.30;99.90;;;;;;5120366;28;20496;-77
2022/09/17 04:08:42;;;;;;;9.55;1.42;;;10.20;99.90;;;;;;5085836;28;20475;-77
2022/09/17 04:11:08;;;;;;;9.77;1.88;;;10.10;99.90;;;;;;5086370;28;20592;-78
2022/09/17 04:13:34;;;;;;;11.98;1.23;;;11.00;99.90;;;;;;5086348;28;20084;-77
2022/09/17 04:16:00;;;;;;;13.10;1.90;;;10.10;99.90;;;;;;5116217;28;20036;-77
2022/09/17 04:18:25;;;;;;;13.10;1.98;;;10.10;99.90;;;;;;5087647;28;20115;-77
2022/09/17 04:20:52;;;;;;;12.27;1.55;;;10.00;99.90;;;;;;5085907;28;20048;-78
2022/09/17 04:23:17;;;;;;;9.52;1.85;;;10.00;99.90;;;;;;5086757;28;20119;-77
2022/09/17 04:25:43;;;;;;;13.07;2.00;;;10.00;99.90;;;;;;5086091;28;20209;-78
2022/09/17 04:28:09;;;;;;;9.23;1.73;;;10.00;99.90;;;;;;5068929;28;20044;-78
2022/09/17 04:30:34;;;;;;;10.80;1.65;;;10.00;99.90;;;;;;5086295;28;20534;-78
2022/09/17 04:33:00;;;;;;;15.50;2.35;;;10.00;99.90;;;;;;5086028;28;20047;-77
2022/09/17 04:35:26;;;;;;;13.57;1.92;;;10.00;99.90;;;;;;5086622;28;20520;-78
2022/09/17 04:37:53;;;;;;;10.88;1.80;;;10.00;99.90;;;;;;5087995;28;20062;-78
2022/09/17 04:40:19;;;;;;;12.23;2.35;;;9.90;99.90;;;;;;5089582;28;20071;-77
2022/09/17 04:42:44;;;;;;;14.68;2.05;;;9.90;99.90;;;;;;5072516;28;20252;-78
2022/09/17 04:45:10;;;;;;;12.02;1.50;;;9.90;99.90;;;;;;5089565;28;20547;-76
2022/09/17 04:47:39;;;;;;;18.08;2.13;;;10.00;99.90;;;;;;5090931;28;20043;-76
2022/09/17 04:50:05;;;;;;;12.15;2.38;;;10.90;99.90;;;;;;5090171;28;20048;-76
2022/09/17 04:52:32;;;;;;;14.18;2.47;;;10.00;99.90;;;;;;5089807;28;20036;-76
2022/09/17 04:54:57;;;;;;;13.05;1.75;;;10.00;99.90;;;;;;5090782;28;20044;-76
2022/09/17 04:57:24;;;;;;;24.85;2.78;;;9.90;99.90;;;;;;5123612;27;20028;-77
2022/09/17 04:59:50;;;;;;;8.95;2.10;;;10.00;99.90;;;;;;5090001;28;20089;-76
2022/09/17 05:02:16;;;;;;;10.98;2.10;;;9.90;99.90;;;;;;5085135;28;20550;-77
2022/09/17 05:04:42;;;;;;;10.90;1.65;;;9.90;99.90;;;;;;5071462;28;20105;-77
2022/09/17 05:07:08;;;;;;;14.07;1.98;;;9.90;99.90;;;;;;5083881;28;20048;-76
2022/09/17 05:09:33;;;;;;;16.27;2.17;;;10.00;99.90;;;;;;5089337;28;20044;-77
2022/09/17 05:11:59;;;;;;;12.57;2.00;;;10.00;99.90;;;;;;5089676;28;20039;-77
2022/09/17 05:14:24;;;;;;;14.13;2.33;;;9.90;99.90;;;;;;5089051;28;20536;-77
2022/09/17 05:16:50;;;;;;;20.65;2.55;;;9.90;99.90;;;;;;5085243;28;20553;-77
2022/09/17 05:19:15;;;;;;;12.30;1.85;;;9.90;99.90;;;;;;5071268;28;20144;-76
2022/09/17 05:21:41;;;;;;;17.80;2.40;;;9.90;99.90;;;;;;5072403;28;20044;-77
2022/09/17 05:24:07;;;;;;;17.08;2.55;;;9.90;99.90;;;;;;5088238;28;20498;-77
2022/09/17 05:26:33;;;;;;;18.48;2.92;;;10.00;99.90;;;;;;5072461;28;20101;-76
2022/09/17 05:28:59;;;;;;;11.40;2.15;;;10.00;99.90;;;;;;5090246;28;20036;-77
2022/09/17 05:31:24;;;;;;;13.43;2.28;;;10.00;99.90;;;;;;5089397;28;20407;-76
2022/09/17 05:33:50;;;;;;;10.50;2.15;;;10.00;99.90;;;;;;5090395;28;20335;-77
2022/09/17 05:36:15;;;;;;;8.57;1.60;;;10.00;99.90;;;;;;5090174;28;20062;-77
2022/09/17 05:38:41;;;;;;;13.73;1.85;;;10.10;99.90;;;;;;5089469;28;20072;-77
2022/09/17 05:41:07;;;;;;;8.65;1.40;;;10.10;99.90;;;;;;5071601;28;20032;-78
2022/09/17 05:43:33;;;;;;;8.95;1.88;;;10.10;99.90;;;;;;5071541;28;20097;-79
2022/09/17 05:46:04;;;;;;;6.15;0.98;;;10.10;99.90;;;;;;5088280;28;20048;-78
2022/09/17 05:48:30;;;;;;;2.65;0.80;;;10.00;99.90;;;;;;5088396;28;20032;-78
2022/09/17 05:50:55;;;;;;;3.55;0.60;;;9.90;99.90;;;;;;5070922;28;20093;-78
2022/09/17 05:53:21;;;;;;;4.93;1.10;;;10.90;99.90;;;;;;5087861;28;20115;-78
2022/09/17 05:55:47;;;;;;;6.82;0.65;;;9.90;99.90;;;;;;5071539;28;20429;-77
2022/09/17 05:58:15;;;;;;;3.38;0.65;;;9.80;99.90;;;;;;5089663;28;20048;-77
2022/09/17 06:00:41;;;;;;;4.97;0.80;;;9.80;99.90;;;;;;5089214;28;20055;-78
2022/09/17 06:03:09;;;;;;;3.22;0.98;;;10.00;99.90;;;;;;5088056;28;20055;-77
2022/09/17 06:05:35;;;;;;;4.07;0.70;;;9.70;99.90;;;;;;5087570;28;20040;-77
2022/09/17 06:08:01;;;;;;;6.22;0.80;;;9.70;99.90;;;;;;5087727;28;20040;-77
2022/09/17 06:10:26;;;;;;;5.68;0.93;;;9.70;99.90;;;;;;5087917;28;20054;-78
2022/09/17 06:12:56;;;;;;;2.55;0.43;;;9.70;99.90;;;;;;5088528;28;20106;-77
2022/09/17 06:15:22;;;;;;;8.07;0.88;;;9.60;99.90;;;;;;5070448;28;20040;-77
2022/09/17 06:17:48;;;;;;;5.50;1.05;;;9.60;99.90;;;;;;5066320;28;20055;-77
2022/09/17 06:20:15;;;;;;;5.60;0.88;;;9.60;99.90;;;;;;5070826;28;20048;-77
2022/09/17 06:22:41;;;;;;;9.38;1.30;;;9.70;99.90;;;;;;5087839;28;20395;-77
2022/09/17 06:25:07;;;;;;;9.20;1.60;;;9.70;99.90;;;;;;5087545;28;20050;-77
2022/09/17 06:27:33;;;;;;;13.77;5.15;;;9.70;99.90;;;;;;5070057;28;20073;-78
2022/09/17 06:29:59;;;;;;;5.88;1.73;;;9.80;99.90;;;;;;5071107;28;20181;-78
2022/09/17 06:32:26;;;;;;;7.65;1.05;;;9.70;99.90;;;;;;5089560;28;20067;-77
2022/09/17 06:34:52;;;;;;;11.43;2.38;;;11.30;99.90;;;;;;5069981;28;20048;-78
2022/09/17 06:37:18;;;;;;;5.35;0.90;;;9.70;99.90;;;;;;5089191;28;20506;-78
2022/09/17 06:39:44;;;;;;;6.80;1.00;;;9.60;99.90;;;;;;5089013;28;20040;-77
2022/09/17 06:42:11;;;;;;;7.97;2.10;;;9.70;99.90;;;;;;5088085;28;20494;-77
2022/09/17 06:44:37;;;;;;;4.60;0.82;;;9.70;99.90;;;;;;5087113;28;20036;-77
2022/09/17 06:47:03;;;;;;;11.40;1.08;;;9.70;99.90;;;;;;5088824;28;20040;-77
2022/09/17 06:49:30;;;;;;;3.58;0.88;;;9.80;99.90;;;;;;5086670;28;20058;-76
2022/09/17 06:51:55;;;;;;;6.90;0.77;;;9.80;99.90;;;;;;5087439;28;20044;-77
2022/09/17 06:54:21;;;;;;;7.32;1.20;;;9.90;99.90;;;;;;5087293;28;20040;-78
2022/09/17 06:56:47;;;;;;;9.95;1.58;;;9.90;99.90;;;;;;5087911;28;20032;-77
2022/09/17 06:59:13;;;;;;;13.05;4.07;;;11.10;99.90;;;;;;5121253;27;20326;-77
2022/09/17 07:01:38;;;;;;;24.40;13.32;;;9.90;99.90;;;;;;5087361;28;20036;-78
2022/09/17 07:04:04;;;;;;;14.57;5.13;;;10.10;99.90;;;;;;5086475;28;20051;-77
2022/09/17 07:06:30;;;;;;;12.73;1.85;;;10.00;99.90;;;;;;5086914;28;20083;-77
2022/09/17 07:08:56;;;;;;;10.23;1.40;;;10.10;99.90;;;;;;5088375;28;20044;-78
2022/09/17 07:11:22;;;;;;;11.52;1.65;;;10.10;99.90;;;;;;5069989;28;20109;-78
2022/09/17 07:13:47;;;;;;;10.85;1.40;;;10.40;99.90;;;;;;5069932;28;20067;-77
2022/09/17 07:16:13;;;;;;;11.45;1.90;;;10.20;99.90;;;;;;5115156;27;20044;-78
2022/09/17 07:18:39;;;;;;;11.57;1.80;;;11.70;99.90;;;;;;5086555;28;20055;-77
2022/09/17 07:21:05;;;;;;;13.63;2.78;;;11.70;99.90;;;;;;5086956;28;20048;-78
2022/09/17 07:23:34;;;;;;;10.02;1.58;;;10.20;99.90;;;;;;5087000;28;20163;-78
2022/09/17 07:26:02;;;;;;;8.40;1.40;;;10.80;99.90;;;;;;5070016;28;20126;-77
2022/09/17 07:28:29;;;;;;;15.10;1.20;;;10.20;99.90;;;;;;5069925;28;20074;-77
2022/09/17 07:30:54;;;;;;;8.73;1.52;;;11.40;99.90;;;;;;5087520;28;20071;-77
2022/09/17 07:33:23;;;;;;;8.98;1.52;;;10.40;99.90;;;;;;5087108;28;20071;-77
2022/09/17 07:35:57;;;;;;;28.15;3.60;;;10.40;99.90;;;;;;5088409;28;20055;-78
2022/09/17 07:38:24;;;;;;;19.85;2.70;;;10.50;99.90;;;;;;5086639;28;20532;-77
2022/09/17 07:41:03;;;;;;;14.27;1.70;;;10.60;99.90;;;;;;5088743;28;20044;-78
2022/09/17 07:43:34;;;;;;;17.20;2.13;;;10.80;99.90;;;;;;5087978;28;20119;-78
2022/09/17 07:46:02;;;;;;;11.98;1.83;;;10.90;99.90;;;;;;5069267;28;20044;-78
2022/09/17 07:48:29;;;;;;;35.35;5.30;;;11.00;99.90;;;;;;5086284;28;20036;-78
2022/09/17 07:50:55;;;;;;;11.00;1.30;;;11.20;99.90;;;;;;5086947;28;20054;-78
2022/09/17 07:53:21;;;;;;;8.88;1.17;;;11.10;99.90;;;;;;5085979;28;20096;-77
2022/09/17 07:55:54;;;;;;;4.95;0.80;;;11.20;99.90;;;;;;5087849;28;20043;-77
2022/09/17 07:58:22;;;;;;;13.20;1.42;;;13.00;99.90;;;;;;5088196;28;20128;-76
2022/09/17 08:00:48;;;;;;;11.93;1.85;;;11.40;99.90;;;;;;5085686;28;20048;-77
2022/09/17 08:03:14;;;;;;;13.00;5.10;;;12.50;99.90;;;;;;5086015;28;20056;-76
2022/09/17 08:05:40;;;;;;;8.50;1.35;;;11.50;99.90;;;;;;5087864;28;20403;-77
2022/09/17 08:08:05;;;;;;;6.03;1.13;;;11.50;99.90;;;;;;5087291;28;20415;-77
2022/09/17 08:10:31;;;;;;;2.88;0.75;;;11.50;99.90;;;;;;5081354;28;20075;-77
2022/09/17 08:12:57;;;;;;;15.27;1.23;;;11.50;99.90;;;;;;5068788;28;20473;-77
2022/09/17 08:15:24;;;;;;;8.98;0.75;;;11.30;99.90;;;;;;5091307;28;20043;-76
2022/09/17 08:17:50;;;;;;;7.38;0.75;;;11.20;99.90;;;;;;5085536;28;20116;-77
2022/09/17 08:20:16;;;;;;;7.47;1.20;;;12.50;99.90;;;;;;5090967;28;20040;-82
2022/09/17 08:22:42;;;;;;;9.57;1.27;;;11.00;99.90;;;;;;5088396;28;20059;-81
2022/09/17 08:25:09;;;;;;;7.20;1.30;;;10.90;99.90;;;;;;5118730;27;20044;-78
2022/09/17 08:27:39;;;;;;;6.80;0.85;;;11.90;99.90;;;;;;5084029;28;20055;-80
2022/09/17 08:30:08;;;;;;;8.20;0.77;;;12.50;99.90;;;;;;5083725;28;20067;-83
2022/09/17 08:32:34;;;;;;;8.73;1.30;;;10.80;99.90;;;;;;5093211;28;20087;-78
2022/09/17 08:35:00;;;;;;;8.85;1.08;;;12.20;99.90;;;;;;5080913;28;20071;-78
2022/09/17 08:37:29;;;;;;;9.52;1.20;;;10.70;99.90;;;;;;5080418;28;20457;-78
2022/09/17 08:39:56;;;;;;;9.50;1.10;;;10.80;99.90;;;;;;5083022;28;20079;-78
2022/09/17 08:42:48;;;;;;;7.88;1.35;;;10.80;99.90;;;;;;5065812;28;20048;-78
2022/09/17 08:45:17;;;;;;;7.80;1.20;;;10.80;99.90;;;;;;5082338;28;20067;-78
2022/09/17 08:47:47;;;;;;;8.25;1.05;;;10.90;99.90;;;;;;5086742;28;20074;-78
2022/09/17 08:50:26;;;;;;;7.20;2.30;;;11.10;99.90;;;;;;5084522;28;20434;-78
2022/09/17 08:53:13;;;;;;;9.00;1.33;;;11.20;99.90;;;;;;5086988;28;20036;-78
2022/09/17 08:55:42;;;;;;;11.05;2.03;;;11.30;99.90;;;;;;5082905;28;20048;-78
2022/09/17 08:58:11;;;;;;;8.95;1.27;;;11.30;99.90;;;;;;5083886;28;20040;-78
2022/09/17 09:01:10;;;;;;;6.05;1.15;;;11.30;99.90;;;;;;5083767;28;20037;-78
2022/09/17 09:03:48;;;;;;;12.73;1.42;;;11.30;99.90;;;;;;5088408;28;20070;-78
2022/09/17 09:06:16;;;;;;;13.20;1.27;;;11.30;99.90;;;;;;5089349;28;20051;-78
2022/09/17 09:08:43;;;;;;;8.75;1.08;;;11.30;99.90;;;;;;5072579;28;20058;-78
2022/09/17 09:11:30;;;;;;;4.78;0.93;;;11.30;99.90;;;;;;5090162;28;20445;-78
2022/09/17 09:14:25;;;;;;;15.23;1.50;;;11.30;99.90;;;;;;5083065;28;20040;-78
2022/09/17 09:16:53;;;;;;;10.02;1.38;;;11.50;99.90;;;;;;5061573;28;20078;-78
2022/09/17 09:19:25;;;;;;;5.60;1.08;;;11.60;99.90;;;;;;5072724;28;20055;-78
2022/09/17 09:22:05;;;;;;;10.57;1.45;;;13.40;99.90;;;;;;5089627;28;20158;-78
2022/09/17 09:24:40;;;;;;;9.57;1.30;;;11.80;99.90;;;;;;5087953;28;20060;-78
2022/09/17 09:27:26;;;;;;;6.78;1.35;;;11.80;99.90;;;;;;5089756;28;20123;-78
2022/09/17 09:30:06;;;;;;;7.03;0.75;;;11.90;99.90;;;;;;5090566;28;20036;-78
2022/09/17 09:33:16;;;;;;;5.55;1.10;;;11.90;99.90;;;;;;5088407;28;20043;-78
2022/09/17 09:35:43;;;;;;;8.88;1.10;;;12.10;99.90;;;;;;5070600;28;20130;-77
2022/09/17 09:38:11;;;;;;;10.20;1.30;;;12.30;99.90;;;;;;5088103;28;20491;-78
2022/09/17 09:41:17;;;;;;;14.27;1.38;;;12.10;99.90;;;;;;5088810;28;20243;-78
2022/09/17 09:43:50;;;;;;;9.25;1.33;;;12.10;99.90;;;;;;5026874;28;20800;-77
2022/09/17 09:46:52;;;;;;;13.05;1.27;;;12.20;99.90;;;;;;5079218;28;20052;-77
2022/09/17 09:49:52;;;;;;;11.55;1.85;;;11.90;99.90;;;;;;5084328;28;20082;-78
2022/09/17 09:52:36;;;;;;;6.38;1.00;;;11.90;99.90;;;;;;5068879;28;20057;-78
2022/09/17 09:55:29;;;;;;;5.20;0.85;;;12.00;99.90;;;;;;5085080;28;20044;-78
2022/09/17 09:58:10;;;;;;;7.65;1.08;;;12.00;99.90;;;;;;5115381;27;20043;-78
2022/09/17 10:00:38;;;;;;;5.72;1.17;;;12.00;99.90;;;;;;5085310;28;20131;-77
2022/09/17 10:03:17;;;;;;;12.20;0.93;;;12.20;99.90;;;;;;5088078;28;20058;-78
2022/09/17 10:05:57;;;;;;;8.00;1.10;;;12.20;99.90;;;;;;5087197;28;20136;-79
2022/09/17 10:08:24;;;;;;;12.52;1.98;;;12.30;99.90;;;;;;5071696;28;20043;-78
2022/09/17 10:11:20;;;;;;;12.40;1.65;;;12.30;99.90;;;;;;5088173;28;20488;-78
2022/09/17 10:13:45;;;;;;;6.88;1.85;;;12.20;99.90;;;;;;5081247;28;20059;-80
2022/09/17 10:16:15;;;;;;;14.55;1.83;;;12.20;99.90;;;;;;5083060;28;20388;-80
2022/09/17 10:18:41;;;;;;;10.38;1.50;;;12.50;99.90;;;;;;5068927;28;20039;-80
2022/09/17 10:21:40;;;;;;;13.00;1.70;;;13.50;99.90;;;;;;5087498;28;20031;-79
2022/09/17 10:24:27;;;;;;;10.48;1.52;;;12.40;99.90;;;;;;5065263;28;20044;-79
2022/09/17 10:27:02;;;;;;;13.52;1.80;;;13.10;99.90;;;;;;5087041;28;20032;-79
2022/09/17 10:29:27;;;;;;;;;;;12.60;99.90;;;;;;5089350;28;20426;-79
2022/09/17 10:31:55;;;;;;;10.10;2.10;;;12.70;99.90;;;;;;5104569;28;19981;-78
2022/09/17 10:34:29;;;;;;;11.35;1.35;;;12.80;99.90;;;;;;5088211;28;20391;-79
2022/09/17 10:36:56;;;;;;;11.15;1.98;;;12.80;99.90;;;;;;5089277;28;20434;-78
2022/09/17 10:39:36;;;;;;;9.70;1.83;;;12.80;99.90;;;;;;5088256;28;20393;-79
2022/09/17 10:42:03;;;;;;;12.55;1.35;;;13.90;99.90;;;;;;5078864;28;20040;-78
2022/09/17 10:44:31;;;;;;;12.63;1.42;;;12.80;99.90;;;;;;5087450;28;20054;-78
2022/09/17 10:47:03;;;;;;;14.27;2.20;;;12.70;99.90;;;;;;5088782;28;20032;-78
2022/09/17 10:49:37;;;;;;;10.27;2.17;;;12.60;99.90;;;;;;5081416;28;20442;-80
2022/09/17 10:52:21;;;;;;;8.25;1.48;;;12.30;99.90;;;;;;5072993;28;20503;-85
2022/09/17 10:54:57;;;;;;;8.95;1.00;;;12.00;99.90;;;;;;5067726;28;20123;-79
2022/09/17 10:57:50;;;;;;;7.97;1.80;;;11.80;99.90;;;;;;5082362;28;20036;-79
2022/09/17 11:00:22;;;;;;;8.18;1.52;;;11.70;99.90;;;;;;5081665;28;20039;-79
2022/09/17 11:03:17;;;;;;;7.55;1.10;;;11.70;99.90;;;;;;5086194;28;20059;-79
2022/09/17 11:06:14;;;;;;;6.28;0.90;;;11.80;99.90;;;;;;5066718;28;20055;-78
2022/09/17 11:09:02;;;;;;;8.68;1.33;;;11.80;99.90;;;;;;5082229;28;20487;-78
2022/09/17 11:11:53;;;;;;;6.32;1.15;;;11.90;99.90;;;;;;5086982;28;20051;-78
2022/09/17 11:14:46;;;;;;;9.80;1.30;;;11.90;99.90;;;;;;5055936;28;20055;-78
2022/09/17 11:17:35;;;;;;;8.73;1.90;;;11.90;99.90;;;;;;5078934;28;20063;-78
2022/09/17 11:20:24;;;;;;;9.80;3.38;;;11.90;99.90;;;;;;5103348;28;20556;-78
2022/09/17 11:23:29;;;;;;;12.65;2.33;;;11.90;99.90;;;;;;5084344;28;20067;-78
2022/09/17 11:26:05;;;;;;;18.13;2.58;;;12.10;99.90;;;;;;5086847;28;20438;-78
2022/09/17 11:28:44;;;;;;;14.10;2.03;;;12.80;99.90;;;;;;5087413;28;20044;-78
2022/09/17 11:31:38;;;;;;;12.45;2.03;;;12.30;99.90;;;;;;5084860;28;20452;-78
2022/09/17 11:34:39;;;;;;;13.27;2.20;;;12.30;99.90;;;;;;5069935;28;20482;-78
2022/09/17 11:37:31;;;;;;;13.70;2.80;;;12.30;99.90;;;;;;5117954;28;20059;-78
2022/09/17 11:40:16;;;;;;;13.73;2.08;;;12.30;99.90;;;;;;5087033;28;20399;-78
2022/09/17 11:42:55;;;;;;;11.88;1.73;;;12.30;99.90;;;;;;5069615;28;20044;-77
2022/09/17 11:45:36;;;;;;;11.02;2.28;;;12.30;99.90;;;;;;5086702;28;20101;-78
2022/09/17 11:48:23;;;;;;;13.05;2.30;;;12.30;99.90;;;;;;5086705;28;20085;-77
2022/09/17 11:50:57;;;;;;;13.38;3.45;;;12.40;99.90;;;;;;5090761;28;20040;-78
2022/09/17 11:53:45;;;;;;;11.38;2.30;;;12.40;99.90;;;;;;5090781;28;20043;-77
2022/09/17 11:56:36;;;;;;;11.70;1.67;;;12.20;99.90;;;;;;5067621;28;20047;-78
2022/09/17 11:59:23;;;;;;;12.15;1.70;;;12.60;99.90;;;;;;5090169;28;20471;-78
2022/09/17 12:02:07;;;;;;;11.38;1.55;;;12.80;99.90;;;;;;5090318;28;20454;-78
2022/09/17 12:04:45;;;;;;;4.60;0.95;;;12.90;99.90;;;;;;5073189;28;20082;-78
2022/09/17 12:07:32;;;;;;;8.68;1.00;;;13.10;99.90;;;;;;5091430;28;20055;-78
2022/09/17 12:10:13;;;;;;;9.55;1.25;;;13.30;99.90;;;;;;5085735;28;20628;-78
2022/09/17 12:12:46;;;;;;;9.40;1.42;;;13.60;99.90;;;;;;5073013;28;20485;-78
2022/09/17 12:15:22;;;;;;;13.35;2.78;;;14.50;99.90;;;;;;5069410;28;20044;-78
2022/09/17 12:18:26;;;;;;;15.18;2.78;;;13.90;99.90;;;;;;5073715;28;20048;-78
2022/09/17 12:20:56;;;;;;;21.65;3.28;;;14.10;99.90;;;;;;5069652;28;20056;-78
2022/09/17 12:23:32;;;;;;;14.23;2.13;;;14.20;99.90;;;;;;5091720;28;20512;-78
2022/09/17 12:26:07;;;;;;;11.98;2.42;;;14.10;99.90;;;;;;5089326;28;20048;-77
2022/09/17 12:28:44;;;;;;;17.02;2.53;;;14.90;99.90;;;;;;5073813;28;20075;-78
2022/09/17 12:31:42;;;;;;;17.52;1.88;;;14.00;99.90;;;;;;5090183;28;20156;-78
2022/09/17 12:34:19;;;;;;;;;;;14.10;99.90;;;;;;5072796;28;20036;-79
2022/09/17 12:37:07;;;;;;;15.18;2.03;;;14.20;99.90;;;;;;5073092;28;19920;-79
2022/09/17 12:40:11;;;;;;;10.95;1.75;;;14.30;99.90;;;;;;5085482;28;20552;-78
2022/09/17 12:42:58;;;;;;;9.02;1.85;;;14.40;99.90;;;;;;5071131;28;20117;-78
2022/09/17 12:45:30;;;;;;;7.00;1.50;;;14.40;99.90;;;;;;5082825;28;20476;-77
2022/09/17 12:47:55;;;;;;;8.70;1.23;;;14.50;99.90;;;;;;5089154;28;20044;-78
2022/09/17 12:50:41;;;;;;;7.78;1.27;;;14.50;99.90;;;;;;5091251;28;20051;-78
2022/09/17 12:53:13;;;;;;;10.38;1.65;;;14.50;99.90;;;;;;5075009;28;20041;-77
2022/09/17 12:55:59;;;;;;;13.00;2.63;;;14.60;99.90;;;;;;5080791;28;20656;-79
2022/09/17 12:58:37;;;;;;;14.52;1.80;;;14.60;99.90;;;;;;5074730;28;20036;-78
2022/09/17 13:01:19;;;;;;;10.55;2.08;;;14.60;99.90;;;;;;5069147;28;20047;-77
2022/09/17 13:04:32;;;;;;;13.07;2.20;;;14.70;99.90;;;;;;5089195;28;20048;-78
2022/09/17 13:07:32;;;;;;;13.68;2.05;;;14.80;99.90;;;;;;5083955;28;20059;-77
2022/09/17 13:10:24;;;;;;;12.70;2.15;;;14.90;99.90;;;;;;5082421;28;20497;-79
2022/09/17 13:12:56;;;;;;;17.52;2.33;;;15.00;99.90;;;;;;5090440;28;20051;-78
2022/09/17 13:15:45;;;;;;;18.90;2.38;;;15.10;99.90;;;;;;5086092;28;20032;-78
2022/09/17 13:18:40;;;;;;;9.77;1.55;;;15.00;99.90;;;;;;5087159;28;20042;-78